Jenkinsville, South Carolina
Current Conditions -  °F | °C
As of 1:55 PM on Sunday 23 Nov 2014 (Local Time) from KFDW Reporting Station
Drizzle Drizzle  
Wind Chill: 54°   Ceiling: 300
Heat Index: 54°   Visibility: 5mi
Dew Point: 54°   Wind: 7mph
Humidity: 100%   Direction: 60°ENE
Pressure: 29.95"   Gusts: NA
Location:  34.27°N, 81.29°W
Report Text: KFDW 231855Z AUTO 06006KT 5SM DZ OVC003 12/12 A2995 RMK AO1
Loading
Personal Weather Stations






























Interactive Weather Map New forecast layout! Learn more

10-Day Weather Forecast

Advertisements
Track Severe Weather on mobile